Time;durP1;ratioP1;P1;durP2;ratioP2;P2;SDS_P1;SDS_P2;PMS_P1;PMS_P2;Temp;Humidity;BMP_temperature;BMP_pressure;BME280_temperature;BME280_humidity;BME280_pressure;Samples;Min_cycle;Max_cycle;Signal;HPM_P1;HPM_P2
2022/12/15 00:38:41;;;;;;;29.10;20.50;;;;;;;2.01;52.73;96707.84;8379367;28;20265;-70
2022/12/15 00:42:44;;;;;;;27.07;20.67;;;;;;;1.99;53.19;96709.59;8379417;28;20276;-71
2022/12/15 00:46:56;;;;;;;27.40;20.47;;;;;;;1.94;53.37;96712.31;8379629;28;20516;-70
2022/12/15 00:50:59;;;;;;;28.13;21.00;;;;;;;2.03;52.50;96711.19;8378483;28;20327;-70
2022/12/15 01:21:08;;;;;;;30.57;22.80;;;;;;;2.12;52.38;96766.25;8378312;28;20236;-70
2022/12/15 01:25:11;;;;;;;30.70;22.57;;;;;;;1.89;53.11;96755.00;8378650;28;20244;-70
2022/12/15 01:29:15;;;;;;;34.73;23.47;;;;;;;2.03;52.52;96759.69;8378724;28;20232;-70
2022/12/15 01:33:19;;;;;;;32.23;23.40;;;;;;;2.10;52.53;96766.31;8378607;28;20220;-70
2022/12/15 01:37:22;;;;;;;36.50;25.00;;;;;;;1.75;53.08;96785.19;8378320;28;20270;-70
2022/12/15 01:41:25;;;;;;;34.93;25.17;;;;;;;2.02;53.00;96773.38;8378644;28;20231;-70
2022/12/15 01:45:49;;;;;;;34.00;24.10;;;;;;;2.08;52.56;96787.66;8378325;28;20224;-70
2022/12/15 01:49:53;;;;;;;34.57;24.57;;;;;;;2.18;52.60;96806.13;8377811;28;20232;-69
2022/12/15 01:54:01;;;;;;;37.77;24.77;;;;;;;2.04;52.73;96798.88;8378263;28;20256;-69
2022/12/15 01:58:06;;;;;;;36.30;25.47;;;;;;;2.13;52.81;96809.66;8378235;28;20241;-70
2022/12/15 02:02:10;;;;;;;36.70;25.07;;;;;;;2.15;52.74;96818.09;8413162;22;20243;-76
2022/12/15 02:06:14;;;;;;;38.07;25.57;;;;;;;2.13;52.79;96799.44;8405170;22;20335;-64
2022/12/15 02:10:17;;;;;;;35.90;24.73;;;;;;;2.08;52.79;96790.22;8385125;28;20229;-64
2022/12/15 02:14:25;;;;;;;37.80;25.73;;;;;;;2.15;52.95;96812.13;8384976;28;20320;-65
2022/12/15 02:18:33;;;;;;;36.97;25.80;;;;;;;2.03;53.01;96821.00;8384991;28;20228;-65
2022/12/15 02:22:50;;;;;;;34.67;25.07;;;;;;;2.24;52.47;96836.59;8384789;28;20298;-64
2022/12/15 02:27:30;;;;;;;36.73;26.03;;;;;;;2.12;52.37;96832.66;8384186;28;20229;-65
2022/12/15 02:31:50;;;;;;;35.57;25.50;;;;;;;2.10;53.07;96837.81;8384572;28;20257;-65
2022/12/15 02:35:56;;;;;;;35.77;25.37;;;;;;;1.79;53.06;96798.69;8383826;28;20240;-64
2022/12/15 02:39:59;;;;;;;37.03;25.47;;;;;;;2.10;52.59;96827.59;8384193;28;20282;-65
2022/12/15 02:44:05;;;;;;;35.73;25.07;;;;;;;2.02;52.67;96832.09;8384040;28;20295;-64
2022/12/15 02:48:18;;;;;;;38.00;25.27;;;;;;;2.15;53.10;96835.13;8383656;28;20236;-64
2022/12/15 02:52:30;;;;;;;35.03;24.80;;;;;;;2.13;52.82;96824.97;8383658;28;20256;-65
2022/12/15 02:56:39;;;;;;;36.07;25.13;;;;;;;1.88;53.13;96790.78;8383649;28;20221;-65
2022/12/15 03:00:45;;;;;;;34.10;24.93;;;;;;;2.15;53.09;96840.22;8383606;28;20237;-65
2022/12/15 03:04:49;;;;;;;34.07;23.90;;;;;;;2.14;53.22;96836.00;8383384;28;20456;-65
2022/12/15 03:08:52;;;;;;;36.53;24.73;;;;;;;2.07;53.30;96834.50;8383026;28;20227;-66
2022/12/15 03:12:57;;;;;;;36.10;26.37;;;;;;;2.01;52.92;96834.69;8383282;28;20539;-65
2022/12/15 03:17:00;;;;;;;31.60;23.80;;;;;;;2.17;53.05;96842.75;8382894;28;20316;-65
2022/12/15 03:21:04;;;;;;;34.57;24.23;;;;;;;2.19;53.10;96853.75;8382709;28;20224;-65
2022/12/15 03:25:08;;;;;;;36.70;24.70;;;;;;;2.07;53.08;96867.72;8382976;28;20229;-65
2022/12/15 03:29:11;;;;;;;36.93;24.93;;;;;;;2.08;52.93;96857.47;8382689;28;20248;-65
2022/12/15 03:33:13;;;;;;;32.70;23.07;;;;;;;1.95;53.01;96839.09;8382273;28;20277;-64
2022/12/15 03:37:17;;;;;;;34.83;24.80;;;;;;;1.90;53.25;96847.75;8382446;28;20229;-64
2022/12/15 03:41:20;;;;;;;34.67;24.67;;;;;;;2.03;53.30;96850.81;8382292;28;20570;-65
2022/12/15 03:45:24;;;;;;;35.67;25.07;;;;;;;1.93;52.65;96828.06;8382027;28;20270;-64
2022/12/15 03:49:26;;;;;;;34.23;25.40;;;;;;;1.98;53.33;96858.59;8382223;28;20267;-64
2022/12/15 03:53:31;;;;;;;34.30;25.00;;;;;;;2.02;53.48;96857.63;8382050;28;20228;-66
2022/12/15 03:57:34;;;;;;;32.90;24.10;;;;;;;2.07;53.06;96860.88;8381900;28;20229;-65
2022/12/15 04:01:37;;;;;;;34.60;24.63;;;;;;;2.02;53.56;96861.88;8381820;28;20550;-65
2022/12/15 04:05:40;;;;;;;35.30;24.77;;;;;;;0.71;53.18;96634.13;8381259;28;20244;-65
2022/12/15 04:09:44;;;;;;;31.83;23.57;;;;;;;2.13;52.40;96847.09;8381430;28;20225;-65
2022/12/15 04:13:47;;;;;;;36.57;23.60;;;;;;;1.90;53.29;96869.00;8381044;28;20240;-65
2022/12/15 04:17:49;;;;;;;36.97;24.97;;;;;;;2.02;53.42;96878.06;8381112;28;20539;-64
2022/12/15 04:21:52;;;;;;;35.90;24.77;;;;;;;1.93;53.17;96893.63;8380525;28;20242;-65
2022/12/15 05:35:29;;;;;;;35.37;24.93;;;;;;;1.80;53.54;96940.78;8378930;28;20413;-64
2022/12/15 05:39:33;;;;;;;35.63;24.70;;;;;;;1.98;53.32;96952.22;8384648;28;20225;-65
2022/12/15 05:43:35;;;;;;;34.47;24.63;;;;;;;1.89;53.18;96951.59;8386115;28;20248;-64
2022/12/15 05:47:40;;;;;;;33.87;24.77;;;;;;;1.93;53.41;96952.38;8385810;28;20229;-65
2022/12/15 05:51:45;;;;;;;34.37;24.10;;;;;;;1.84;53.78;96955.97;8385637;28;20235;-65
2022/12/15 05:55:48;;;;;;;38.90;27.73;;;;;;;2.01;53.49;96964.94;8385721;28;20236;-65
2022/12/15 05:59:51;;;;;;;43.77;28.43;;;;;;;1.96;52.91;96957.38;8385754;28;20282;-65
2022/12/15 06:03:54;;;;;;;44.13;29.37;;;;;;;2.02;53.11;96958.94;8384927;28;20237;-66
2022/12/15 06:08:00;;;;;;;38.27;26.33;;;;;;;2.05;52.69;96959.69;8385114;28;20248;-65
2022/12/15 06:12:02;;;;;;;36.33;26.03;;;;;;;2.11;52.60;96971.47;8385443;28;20299;-66
2022/12/15 06:16:07;;;;;;;32.57;23.90;;;;;;;2.02;53.00;96979.34;8385110;28;20274;-65
2022/12/15 06:20:11;;;;;;;38.30;25.77;;;;;;;2.01;53.40;96978.53;8385025;28;20233;-66
2022/12/15 06:24:15;;;;;;;45.87;31.10;;;;;;;1.99;52.69;96967.53;8384955;28;20530;-65
2022/12/15 06:28:22;;;;;;;37.20;27.00;;;;;;;1.78;53.00;96968.06;8384696;28;20236;-65
2022/12/15 06:32:25;;;;;;;40.63;28.50;;;;;;;1.53;53.23;96959.31;8384553;28;20233;-66
2022/12/15 06:36:29;;;;;;;35.07;25.27;;;;;;;1.73;53.12;96989.47;8383932;28;20224;-65
2022/12/15 06:40:33;;;;;;;36.20;26.40;;;;;;;1.63;52.87;96994.81;8384160;28;20268;-65
2022/12/15 06:44:41;;;;;;;34.67;25.57;;;;;;;1.49;53.28;96964.53;8384244;28;20232;-67
2022/12/15 06:48:47;;;;;;;37.57;25.83;;;;;;;1.88;53.25;97008.63;8383670;28;20249;-65
2022/12/15 06:52:49;;;;;;;35.53;25.77;;;;;;;1.89;52.84;96996.72;8383784;28;20240;-65
2022/12/15 06:56:53;;;;;;;40.47;27.10;;;;;;;1.60;53.36;96979.56;8383683;28;20222;-65
2022/12/15 07:00:57;;;;;;;38.37;27.07;;;;;;;1.41;54.57;96976.63;8383859;28;20236;-65
2022/12/15 07:04:59;;;;;;;41.40;28.13;;;;;;;1.41;54.32;96979.16;8383721;28;20295;-65
2022/12/15 07:09:03;;;;;;;37.90;24.83;;;;;;;1.65;53.54;96983.69;8383435;28;20248;-65
2022/12/15 07:13:09;;;;;;;37.00;25.73;;;;;;;1.71;53.48;97014.19;8383624;28;20241;-65
2022/12/15 07:17:12;;;;;;;39.97;28.00;;;;;;;1.69;53.36;97033.78;8383641;28;20472;-65
2022/12/15 07:21:15;;;;;;;39.23;26.60;;;;;;;1.57;53.92;97039.19;8383248;28;20237;-65
2022/12/15 07:25:18;;;;;;;38.50;25.97;;;;;;;1.73;52.96;97032.00;8383351;28;20237;-65
2022/12/15 07:29:22;;;;;;;37.73;27.43;;;;;;;1.54;52.79;97042.66;8383166;28;20229;-66
2022/12/15 07:33:25;;;;;;;35.73;25.13;;;;;;;1.63;52.96;97050.97;8382648;28;20225;-65
2022/12/15 07:37:29;;;;;;;37.97;24.87;;;;;;;1.68;52.07;97049.97;8382813;28;20235;-66
2022/12/15 07:41:34;;;;;;;37.30;25.30;;;;;;;1.52;51.80;97015.47;8382673;28;20271;-65
2022/12/15 07:45:38;;;;;;;37.13;24.77;;;;;;;1.64;51.46;97034.75;8382612;28;20520;-66
2022/12/15 07:49:41;;;;;;;34.33;24.47;;;;;;;1.58;51.78;97045.97;8382563;28;20519;-66
2022/12/15 07:53:44;;;;;;;35.63;25.40;;;;;;;1.47;51.76;97037.72;8381183;28;20322;-65
2022/12/15 07:57:47;;;;;;;36.20;24.50;;;;;;;1.47;51.56;97051.31;8382211;28;20224;-66
2022/12/15 08:01:52;;;;;;;35.83;25.47;;;;;;;1.51;50.84;97047.00;8381231;28;20229;-65
2022/12/15 08:05:55;;;;;;;39.87;26.17;;;;;;;2.47;49.53;97040.34;8381370;28;20229;-66
2022/12/15 08:10:06;;;;;;;35.97;25.17;;;;;;;1.72;49.46;97059.25;8381747;28;20278;-67
2022/12/15 08:14:09;;;;;;;33.93;24.93;;;;;;;1.86;49.48;97075.94;8381481;28;20274;-66
2022/12/15 08:18:20;;;;;;;35.90;25.17;;;;;;;1.72;49.12;97066.91;8381299;28;20225;-66
2022/12/15 08:22:23;;;;;;;37.70;24.50;;;;;;;1.56;49.36;97061.31;8381575;28;20260;-66
2022/12/15 08:26:27;;;;;;;42.77;30.10;;;;;;;1.62;49.50;97065.44;8381308;28;20421;-65
2022/12/15 08:30:33;;;;;;;40.73;27.20;;;;;;;1.79;49.65;97080.38;8381142;28;20221;-66
2022/12/15 08:34:38;;;;;;;43.80;27.77;;;;;;;1.65;49.90;97077.28;8380951;28;20221;-67
2022/12/15 08:38:41;;;;;;;43.97;29.43;;;;;;;1.64;49.45;97093.47;8380560;28;20431;-66
2022/12/15 08:42:44;;;;;;;43.23;28.10;;;;;;;1.59;49.23;97095.31;8380610;28;20233;-66
2022/12/15 08:46:47;;;;;;;41.73;27.83;;;;;;;1.45;48.92;97070.94;8380025;28;20519;-66
2022/12/15 08:50:51;;;;;;;39.13;27.03;;;;;;;1.63;48.53;97063.72;8379619;28;20544;-66
2022/12/15 08:54:55;;;;;;;30.50;21.20;;;;;;;5.72;89.46;97115.22;8379663;28;20225;-68
2022/12/15 08:58:59;;;;;;;38.07;24.83;;;;;;;6.65;54.86;97107.22;8380110;28;20328;-69
2022/12/15 09:03:02;;;;;;;35.17;24.73;;;;;;;7.57;47.74;97099.75;8380073;28;20236;-69
2022/12/15 09:07:07;;;;;;;45.30;36.58;;;;;;;5.94;42.63;97116.94;8378450;28;20424;-68
2022/12/15 09:11:10;;;;;;;44.43;34.67;;;;;;;4.10;45.79;97120.88;8378645;28;20225;-67
2022/12/15 09:15:13;;;;;;;45.53;33.70;;;;;;;3.86;45.55;97134.44;8379277;28;20240;-66
2022/12/15 09:19:16;;;;;;;38.60;30.03;;;;;;;3.72;45.71;97128.03;8379010;28;20228;-67
2022/12/15 09:23:21;;;;;;;36.90;28.00;;;;;;;3.15;45.82;97089.63;8379344;28;20232;-67
2022/12/15 09:27:23;;;;;;;39.43;28.20;;;;;;;3.23;46.61;97143.97;8378912;28;20386;-67
2022/12/15 09:31:28;;;;;;;42.43;29.97;;;;;;;3.14;46.58;97127.16;8379161;28;20229;-67
2022/12/15 09:35:31;;;;;;;43.97;30.97;;;;;;;3.17;46.94;97126.25;8379010;28;20603;-67
2022/12/15 09:39:36;;;;;;;43.50;31.20;;;;;;;3.20;47.88;97142.34;8378941;28;20233;-67
2022/12/15 09:43:42;;;;;;;44.50;33.03;;;;;;;3.11;48.39;97137.50;8378579;28;20229;-67
2022/12/15 09:47:52;;;;;;;47.73;32.30;;;;;;;3.25;48.11;97114.06;8378808;28;20284;-66
2022/12/15 09:52:02;;;;;;;50.73;32.43;;;;;;;3.24;48.53;97104.72;8377796;28;20294;-68
2022/12/15 09:56:18;;;;;;;44.93;31.43;;;;;;;3.42;48.86;97099.06;8378745;28;20419;-67
2022/12/15 10:00:24;;;;;;;43.43;30.70;;;;;;;3.01;49.10;97102.78;8378587;28;20270;-67
2022/12/15 10:04:34;;;;;;;41.97;29.83;;;;;;;3.66;49.24;97086.41;8378219;28;20229;-67
2022/12/15 10:08:39;;;;;;;44.20;31.10;;;;;;;3.98;49.03;97118.72;8378008;28;20423;-67
2022/12/15 10:12:46;;;;;;;40.90;30.13;;;;;;;3.92;48.67;97103.50;8377753;28;20232;-67
2022/12/15 10:17:07;;;;;;;36.13;26.00;;;;;;;4.05;48.42;97099.66;8377664;28;20547;-66
2022/12/15 10:21:12;;;;;;;36.33;25.63;;;;;;;4.61;47.95;97126.91;8378471;28;20528;-66
2022/12/15 10:25:17;;;;;;;33.27;24.47;;;;;;;4.45;46.52;97118.88;8382446;28;20431;-67
2022/12/15 10:29:44;;;;;;;42.70;30.23;;;;;;;4.74;47.46;97122.19;8384022;28;20232;-67
2022/12/15 10:33:56;;;;;;;33.23;25.37;;;;;;;4.85;46.00;97101.28;8382906;28;20279;-67
2022/12/15 10:38:01;;;;;;;33.47;25.47;;;;;;;4.81;45.73;97089.47;8383699;28;20582;-66
2022/12/15 10:42:12;;;;;;;39.57;28.33;;;;;;;4.80;46.33;97064.72;8383402;28;20267;-66
2022/12/15 10:46:18;;;;;;;34.27;25.87;;;;;;;5.40;44.50;97091.56;8383287;28;20286;-67
2022/12/15 10:50:23;;;;;;;36.87;27.70;;;;;;;5.13;45.33;97079.78;8383183;28;20221;-67
2022/12/15 10:54:47;;;;;;;63.30;42.27;;;;;;;3.38;45.77;96835.59;8383019;28;20225;-67
2022/12/15 10:58:52;;;;;;;39.50;28.57;;;;;;;5.00;46.34;97046.03;8383266;28;20225;-67
2022/12/15 11:02:57;;;;;;;37.27;29.03;;;;;;;4.98;45.27;97022.16;8382471;28;20223;-67
2022/12/15 11:07:02;;;;;;;38.70;28.53;;;;;;;4.82;46.96;97034.72;8381489;28;20232;-67
2022/12/15 11:15:48;;;;;;;36.23;26.00;;;;;;;4.42;47.76;97036.94;8382866;28;20232;-67
2022/12/15 11:19:57;;;;;;;34.80;26.47;;;;;;;4.57;46.63;97033.03;8382550;28;20505;-67
2022/12/15 11:24:10;;;;;;;33.67;25.17;;;;;;;4.64;47.31;97025.94;8382583;28;20304;-65
2022/12/15 11:28:16;;;;;;;33.90;25.50;;;;;;;4.67;46.83;97046.34;8382454;28;20228;-67
2022/12/15 11:32:23;;;;;;;32.97;24.53;;;;;;;4.50;45.64;97011.03;8382377;28;20274;-68
2022/12/15 11:36:39;;;;;;;36.43;26.10;;;;;;;4.92;45.22;97027.50;8381786;28;20217;-67
2022/12/15 11:40:42;;;;;;;35.73;25.77;;;;;;;4.33;45.40;96955.25;8381764;28;20228;-68
2022/12/15 11:44:52;;;;;;;37.93;27.43;;;;;;;4.50;47.74;97044.38;8381787;28;20228;-68
2022/12/15 11:49:21;;;;;;;33.90;25.17;;;;;;;4.22;48.91;97037.63;8380984;28;20229;-67
2022/12/15 11:53:47;;;;;;;39.80;28.43;;;;;;;3.73;49.93;97023.84;8378962;28;20233;-68
2022/12/15 11:58:05;;;;;;;34.83;26.57;;;;;;;4.22;49.51;97019.69;8381356;28;20306;-67
2022/12/15 12:02:18;;;;;;;37.70;26.70;;;;;;;4.55;48.68;97016.00;8381099;28;20229;-67
2022/12/15 12:06:27;;;;;;;36.73;27.00;;;;;;;4.34;48.68;97015.88;8380690;28;20229;-67
2022/12/15 12:10:38;;;;;;;38.00;27.23;;;;;;;4.34;48.85;97002.22;8380980;28;20338;-67
2022/12/15 12:14:49;;;;;;;36.93;26.77;;;;;;;4.38;48.75;97022.56;8381003;28;20248;-68
2022/12/15 12:18:56;;;;;;;40.97;29.53;;;;;;;4.21;49.55;97010.34;8380393;28;20594;-67
2022/12/15 12:23:03;;;;;;;40.57;29.57;;;;;;;4.22;49.52;97004.28;8380864;28;20243;-67
2022/12/15 12:27:11;;;;;;;35.57;25.87;;;;;;;4.10;49.66;97003.00;8380595;28;20423;-66
2022/12/15 12:31:22;;;;;;;38.90;28.57;;;;;;;4.04;50.25;97010.06;8380277;28;20224;-67
2022/12/15 12:35:28;;;;;;;37.47;27.07;;;;;;;4.35;49.48;96999.59;8380022;28;20232;-65
2022/12/15 12:39:36;;;;;;;38.03;27.13;;;;;;;4.31;49.39;96996.31;8380559;28;20300;-67
2022/12/15 12:43:43;;;;;;;35.27;25.77;;;;;;;4.26;49.47;96998.19;8380412;28;20235;-67
2022/12/15 12:47:54;;;;;;;36.17;26.77;;;;;;;4.28;49.58;96993.00;8380100;28;20228;-67
2022/12/15 12:51:58;;;;;;;35.87;26.90;;;;;;;4.31;49.69;96998.84;8379672;28;20224;-68
2022/12/15 12:56:01;;;;;;;38.17;27.73;;;;;;;4.33;49.33;96995.41;8379630;28;20239;-68
2022/12/15 13:00:21;;;;;;;37.27;27.00;;;;;;;4.11;49.78;96983.31;8379831;28;20235;-67
2022/12/15 13:04:38;;;;;;;35.90;26.10;;;;;;;4.03;49.57;96985.31;8379848;28;20228;-67
2022/12/15 13:08:50;;;;;;;36.10;26.83;;;;;;;4.11;50.12;96973.94;8380049;28;20229;-67
2022/12/15 13:12:54;;;;;;;37.57;27.30;;;;;;;4.24;50.08;96958.13;8379352;28;20233;-67
2022/12/15 13:17:03;;;;;;;39.63;28.97;;;;;;;3.78;50.73;96937.47;8379861;28;20406;-68
2022/12/15 13:21:51;;;;;;;40.67;27.70;;;;;;;4.01;50.46;96929.00;8379214;28;20551;-67
2022/12/15 13:26:05;;;;;;;38.27;27.50;;;;;;;4.04;50.50;96933.22;8379166;28;20237;-68
2022/12/15 13:30:15;;;;;;;36.20;26.13;;;;;;;3.95;50.59;96933.53;8378936;28;20229;-68
2022/12/15 13:34:21;;;;;;;38.57;27.20;;;;;;;3.95;50.92;96924.09;8379118;28;20233;-67
2022/12/15 13:38:51;;;;;;;39.27;27.57;;;;;;;3.98;50.95;96924.00;8379573;28;20221;-68
2022/12/15 13:42:57;;;;;;;37.50;26.30;;;;;;;4.15;50.75;96927.69;8378755;28;20515;-68
2022/12/15 13:47:08;;;;;;;42.70;29.30;;;;;;;3.75;51.54;96916.25;8378415;28;20297;-68
2022/12/15 13:51:29;;;;;;;51.27;32.60;;;;;;;3.54;52.19;96926.31;8379058;28;20228;-67
2022/12/15 13:55:36;;;;;;;49.33;32.23;;;;;;;3.86;51.61;96935.47;8378577;28;20236;-67
2022/12/15 13:59:42;;;;;;;44.23;31.30;;;;;;;3.94;51.53;96935.25;8382328;28;20228;-66
2022/12/15 14:03:57;;;;;;;43.40;31.63;;;;;;;3.99;51.22;96933.34;8385339;28;20524;-66
2022/12/15 14:08:02;;;;;;;43.53;35.10;;;;;;;4.03;51.01;96934.09;8383496;28;20432;-67
2022/12/15 14:12:08;;;;;;;41.97;30.33;;;;;;;3.85;51.38;96902.25;8385073;28;20236;-67
2022/12/15 14:16:18;;;;;;;45.03;30.70;;;;;;;3.91;51.02;96925.94;8384645;28;20228;-67
2022/12/15 14:20:23;;;;;;;45.87;30.90;;;;;;;3.82;51.30;96915.16;8384217;28;20225;-68
2022/12/15 14:24:29;;;;;;;47.60;32.97;;;;;;;3.83;51.36;96916.84;8384636;28;20236;-67
2022/12/15 14:28:44;;;;;;;47.53;32.93;;;;;;;3.77;51.65;96914.47;8384111;28;20314;-68
2022/12/15 14:32:51;;;;;;;44.58;30.13;;;;;;;3.72;51.39;96914.63;8383820;28;20421;-68
2022/12/15 14:36:55;;;;;;;42.70;29.07;;;;;;;3.69;51.41;96918.16;8383491;28;20225;-68
2022/12/15 14:41:01;;;;;;;41.83;29.63;;;;;;;3.45;51.16;96921.53;8382961;28;20408;-67
2022/12/15 14:45:05;;;;;;;45.27;31.07;;;;;;;3.46;51.30;96923.19;8382913;28;20252;-67
2022/12/15 14:49:14;;;;;;;44.00;29.47;;;;;;;3.38;51.04;96931.09;8383660;28;20232;-67
2022/12/15 14:53:18;;;;;;;41.60;29.10;;;;;;;3.34;50.76;96932.09;8383438;28;20228;-67
2022/12/15 14:57:24;;;;;;;42.70;28.93;;;;;;;3.22;50.91;96933.31;8383276;28;20229;-67
2022/12/15 15:01:29;;;;;;;44.20;29.10;;;;;;;3.10;50.93;96937.09;8383300;28;20228;-67
2022/12/15 15:05:32;;;;;;;44.73;36.10;;;;;;;3.76;49.05;96931.56;8380762;28;20589;-69
2022/12/15 15:09:39;;;;;;;43.43;30.53;;;;;;;3.13;50.32;96921.66;8383553;28;20288;-67
2022/12/15 15:13:43;;;;;;;46.00;30.13;;;;;;;2.95;50.73;96924.75;8383760;28;20354;-68
2022/12/15 15:17:49;;;;;;;43.73;29.80;;;;;;;3.00;50.39;96940.81;8383444;28;20274;-67
2022/12/15 15:21:53;;;;;;;46.00;31.90;;;;;;;2.80;50.74;96927.78;8382327;28;20277;-68
2022/12/15 15:25:57;;;;;;;47.63;31.40;;;;;;;2.79;51.13;96921.00;8383114;28;20229;-68
2022/12/15 15:30:19;;;;;;;44.70;29.67;;;;;;;2.72;51.09;96910.97;8383263;28;20233;-67
2022/12/15 15:34:22;;;;;;;48.20;31.60;;;;;;;2.60;51.21;96906.22;8383023;28;20228;-67
2022/12/15 15:38:29;;;;;;;46.77;30.53;;;;;;;2.52;51.53;96909.00;8383069;28;20565;-67
2022/12/15 15:42:32;;;;;;;44.97;31.13;;;;;;;2.56;51.29;96912.31;8382975;28;20288;-67
2022/12/15 15:46:39;;;;;;;45.07;31.10;;;;;;;2.67;51.11;96912.00;8383200;28;20228;-67
2022/12/15 15:50:43;;;;;;;47.03;31.53;;;;;;;2.36;51.98;96912.84;8382640;28;20339;-67
2022/12/15 15:54:46;;;;;;;46.70;30.63;;;;;;;2.43;51.71;96919.47;8382544;28;20240;-67
2022/12/15 15:58:49;;;;;;;56.00;36.30;;;;;;;2.42;51.83;96924.63;8382398;28;20233;-66
2022/12/15 16:02:53;;;;;;;54.33;35.37;;;;;;;2.37;51.43;96906.88;8382255;28;20270;-67
2022/12/15 16:06:56;;;;;;;49.13;32.40;;;;;;;2.54;51.42;96912.34;8381371;28;20296;-67
2022/12/15 16:10:59;;;;;;;49.57;31.03;;;;;;;2.45;51.62;96915.16;8382079;28;20399;-67
2022/12/15 16:15:02;;;;;;;47.70;31.10;;;;;;;2.61;51.39;96919.81;8381463;28;20263;-67
2022/12/15 16:19:06;;;;;;;49.80;30.73;;;;;;;2.63;51.43;96921.47;8381766;28;20528;-67
2022/12/15 16:23:12;;;;;;;49.00;32.27;;;;;;;2.51;51.66;96917.56;8380580;28;20228;-68
2022/12/15 16:27:16;;;;;;;53.10;32.77;;;;;;;2.25;51.81;96884.25;8380666;28;20229;-68
2022/12/15 16:31:28;;;;;;;52.90;33.90;;;;;;;2.32;51.96;96913.84;8381341;28;20239;-68
2022/12/15 16:35:39;;;;;;;55.87;33.77;;;;;;;2.36;52.10;96910.31;8381289;28;20547;-69
2022/12/15 16:39:43;;;;;;;51.33;32.73;;;;;;;2.37;51.88;96912.00;8381179;28;20228;-68
2022/12/15 16:43:45;;;;;;;50.67;32.43;;;;;;;2.32;51.87;96907.03;8381142;28;20225;-69
2022/12/15 16:47:50;;;;;;;54.97;35.23;;;;;;;2.38;51.79;96898.34;8381025;28;20232;-68
2022/12/15 16:51:55;;;;;;;57.17;36.53;;;;;;;2.25;51.64;96899.59;8380515;28;20286;-68
2022/12/15 16:55:59;;;;;;;57.23;36.90;;;;;;;2.31;51.65;96892.56;8380551;28;20233;-68
2022/12/15 17:00:02;;;;;;;48.80;31.10;;;;;;;1.40;51.36;96733.41;8380495;28;20225;-68
2022/12/15 17:04:05;;;;;;;64.63;37.67;;;;;;;2.35;50.55;96881.38;8380276;28;20229;-68
2022/12/15 17:08:14;;;;;;;83.60;45.37;;;;;;;2.29;51.12;96883.28;8380175;28;20245;-67
2022/12/15 17:12:18;;;;;;;65.77;38.17;;;;;;;2.35;51.06;96893.31;8380225;28;20221;-67
2022/12/15 17:16:22;;;;;;;56.30;34.43;;;;;;;2.28;51.21;96886.69;8380266;28;20224;-67
2022/12/15 17:20:27;;;;;;;62.20;37.63;;;;;;;2.22;51.26;96900.47;8380313;28;20299;-68
2022/12/15 17:24:33;;;;;;;52.87;32.90;;;;;;;2.34;51.13;96899.28;8380274;28;20247;-67
2022/12/15 17:28:37;;;;;;;54.63;35.03;;;;;;;2.15;51.50;96910.06;8379919;28;20224;-67
2022/12/15 17:32:40;;;;;;;54.50;34.73;;;;;;;2.03;51.58;96889.94;8383667;28;20228;-68
2022/12/15 17:36:43;;;;;;;48.40;31.20;;;;;;;2.19;50.98;96897.19;8391054;28;20229;-68
2022/12/15 17:40:48;;;;;;;57.13;35.40;;;;;;;2.04;51.01;96890.81;8390930;28;20229;-68
2022/12/15 17:44:51;;;;;;;52.10;33.17;;;;;;;2.13;51.29;96883.72;8391081;28;20255;-68
2022/12/15 17:48:54;;;;;;;52.87;31.07;;;;;;;2.12;50.86;96870.97;8390536;28;20405;-68
2022/12/15 17:52:57;;;;;;;45.87;28.90;;;;;;;2.18;51.00;96868.25;8390491;28;20240;-68
2022/12/15 17:57:01;;;;;;;45.07;29.17;;;;;;;2.11;50.79;96874.41;8390688;28;20574;-67
2022/12/15 18:01:04;;;;;;;46.73;27.50;;;;;;;2.18;50.81;96859.75;8390860;28;20236;-68
2022/12/15 18:05:08;;;;;;;46.23;28.83;;;;;;;1.95;51.17;96853.56;8390061;28;20528;-67
2022/12/15 18:09:14;;;;;;;43.13;26.97;;;;;;;2.08;51.28;96859.19;8390086;28;20264;-68
2022/12/15 18:13:21;;;;;;;46.37;27.70;;;;;;;2.14;51.06;96856.44;8390467;28;20232;-68
2022/12/15 18:17:24;;;;;;;46.43;29.70;;;;;;;1.86;51.59;96841.06;8389379;28;20242;-68
2022/12/15 18:21:27;;;;;;;52.23;32.40;;;;;;;1.89;52.15;96840.97;8390210;28;20228;-68
2022/12/15 18:25:30;;;;;;;47.43;29.57;;;;;;;1.75;52.66;96841.34;8390258;28;20251;-67
2022/12/15 18:29:34;;;;;;;45.37;28.87;;;;;;;1.99;52.38;96816.84;8390133;28;20228;-67
2022/12/15 18:33:37;;;;;;;46.03;28.37;;;;;;;1.91;52.48;96796.66;8389981;28;20221;-68
2022/12/15 18:37:40;;;;;;;42.20;26.97;;;;;;;1.99;52.66;96814.28;8389848;28;20232;-67
2022/12/15 18:41:44;;;;;;;43.70;27.70;;;;;;;2.06;52.17;96822.63;8390597;28;20304;-68
2022/12/15 18:45:49;;;;;;;41.63;27.07;;;;;;;2.06;51.83;96827.75;8385725;28;20528;-68
2022/12/15 18:49:52;;;;;;;38.83;25.83;;;;;;;2.03;52.36;96831.19;8384212;28;20235;-68
2022/12/15 18:53:55;;;;;;;37.93;24.33;;;;;;;2.09;52.45;96825.09;8384971;28;20228;-68
2022/12/15 18:58:00;;;;;;;36.83;23.73;;;;;;;2.04;52.26;96819.28;8384336;28;20232;-68
2022/12/15 19:02:04;;;;;;;37.90;23.87;;;;;;;1.99;52.10;96810.91;8384666;28;20225;-68
2022/12/15 19:06:14;;;;;;;39.60;24.27;;;;;;;1.97;52.67;96805.03;8383778;28;20487;-69
2022/12/15 19:10:17;;;;;;;40.67;26.13;;;;;;;1.87;52.63;96807.00;8384363;28;20228;-69
2022/12/15 19:22:55;;;;;;;36.97;23.83;;;;;;;1.97;52.47;96794.81;8350483;28;20229;-70
2022/12/15 19:26:58;;;;;;;36.67;23.93;;;;;;;2.02;52.02;96795.50;8383732;28;20527;-69
2022/12/15 19:31:01;;;;;;;38.80;24.17;;;;;;;1.88;52.16;96778.03;8383660;28;20228;-69
2022/12/15 19:35:05;;;;;;;36.07;22.97;;;;;;;2.15;51.56;96778.94;8383195;28;20240;-69
2022/12/15 19:39:10;;;;;;;34.57;22.83;;;;;;;2.18;51.75;96773.72;8383112;28;20229;-69
2022/12/15 19:43:15;;;;;;;34.20;26.73;;;;;;;2.47;50.02;96767.72;8381470;28;20566;-69
2022/12/15 19:47:17;;;;;;;37.30;24.37;;;;;;;2.30;50.70;96783.59;8383054;28;20780;-68
2022/12/15 19:51:23;;;;;;;39.07;26.07;;;;;;;2.20;51.00;96754.09;8382622;28;20235;-67
2022/12/15 19:55:28;;;;;;;178.25;99.80;;;;;;;7.52;83.81;96780.50;8380232;28;20563;-70
2022/12/15 19:59:31;;;;;;;71.80;41.43;;;;;;;8.58;57.28;96766.34;8381850;28;20227;-69
2022/12/15 20:03:35;;;;;;;40.63;28.53;;;;;;;5.77;44.46;96756.19;8382117;28;20235;-68
2022/12/15 20:07:41;;;;;;;35.60;25.00;;;;;;;4.39;46.71;96743.97;8381715;28;20235;-68
2022/12/15 20:11:44;;;;;;;37.20;26.43;;;;;;;3.78;47.68;96747.97;8381397;28;20236;-68
2022/12/15 20:15:47;;;;;;;51.20;32.13;;;;;;;3.51;48.17;96737.00;8381944;28;20240;-67
2022/12/15 20:19:50;;;;;;;37.30;25.43;;;;;;;3.09;48.71;96723.09;8380743;28;20244;-67
2022/12/15 20:23:59;;;;;;;34.43;22.20;;;;;;;2.97;49.31;96732.91;8381054;28;20228;-68
2022/12/15 20:28:03;;;;;;;33.53;23.23;;;;;;;2.68;49.71;96729.59;8381418;28;20237;-68
2022/12/15 20:32:07;;;;;;;33.23;22.67;;;;;;;2.64;49.64;96728.84;8381419;28;20237;-67
2022/12/15 20:36:14;;;;;;;32.53;23.33;;;;;;;2.49;50.71;96719.13;8380532;28;20233;-68
2022/12/15 20:40:21;;;;;;;31.33;21.33;;;;;;;2.71;50.14;96726.94;8380940;28;20220;-68
2022/12/15 20:44:28;;;;;;;32.63;20.57;;;;;;;2.45;50.91;96705.59;8381156;28;20240;-68
2022/12/15 20:48:32;;;;;;;29.50;19.80;;;;;;;2.42;51.38;96723.63;8380985;28;20291;-68
2022/12/15 20:52:35;;;;;;;30.67;19.43;;;;;;;2.46;51.28;96701.34;8380887;28;20231;-68
2022/12/15 20:56:39;;;;;;;30.53;19.40;;;;;;;2.53;51.10;96707.91;8380557;28;20236;-68
2022/12/15 21:00:42;;;;;;;30.10;19.73;;;;;;;2.53;51.28;96716.44;8380336;28;20236;-68
2022/12/15 21:04:45;;;;;;;26.80;17.90;;;;;;;2.57;51.91;96721.44;8380060;28;20236;-67
2022/12/15 21:08:48;;;;;;;31.13;20.53;;;;;;;2.51;51.11;96725.03;8379116;28;20233;-67
2022/12/15 21:12:53;;;;;;;33.97;22.70;;;;;;;2.51;51.64;96713.09;8379608;28;20523;-68
2022/12/15 21:16:56;;;;;;;30.33;19.97;;;;;;;2.58;51.70;96720.56;8378980;28;20323;-68
2022/12/15 21:21:00;;;;;;;30.27;19.37;;;;;;;2.47;52.06;96724.28;8379572;28;20288;-68
2022/12/15 21:25:03;;;;;;;25.47;17.53;;;;;;;2.58;51.96;96721.38;8378930;28;20236;-67
2022/12/15 21:29:18;;;;;;;27.73;21.30;;;;;;;3.07;50.66;96726.59;8378163;28;20421;-66